China, Texas
Current Conditions -  °F | °C
As of 8:35 AM on Wednesday 22 Oct 2014 (Local Time) from KBMT Reporting Station
Clear Clear  
Wind Chill: 63°   Ceiling: Unl
Heat Index: 63°   Visibility: 10mi
Dew Point: 60°   Wind: 3mph
Humidity: 89%   Direction: 50°NE
Pressure: 30.1"   Gusts: NA
Location:  30.05°N, 94.34°W
Report Text: KBMT 221335Z AUTO 05003KT 10SM CLR 17/15 A3010 RMK AO2 T01710153
Loading
Personal Weather Stations






























Interactive Weather Map
Tropical Storm Tracking
New forecast layout! Learn more

10-Day Weather Forecast

Advertisements
Track Severe Weather on mobile